Time;durP1;ratioP1;P1;durP2;ratioP2;P2;SDS_P1;SDS_P2;PMS_P1;PMS_P2;Temp;Humidity;BMP_temperature;BMP_pressure;BME280_temperature;BME280_humidity;BME280_pressure;Samples;Min_cycle;Max_cycle;Signal;HPM_P1;HPM_P2
2022/09/26 00:02:48;;;;;;;5.43;2.60;;;;;;;;;;10564104;28;20085;-74
2022/09/26 00:07:53;;;;;;;3.70;2.17;;;;;;;;;;10586118;27;20051;-73
2022/09/26 00:12:59;;;;;;;4.82;2.40;;;;;;;;;;10572829;28;20093;-73
2022/09/26 00:18:03;;;;;;;4.65;2.58;;;;;;;;;;10567177;28;20092;-73
2022/09/26 00:23:07;;;;;;;3.88;2.15;;;;;;;;;;10546758;28;20093;-74
2022/09/26 00:28:15;;;;;;;4.20;2.03;;;;;;;;;;10551998;28;20097;-73
2022/09/26 00:33:20;;;;;;;4.85;2.72;;;;;;;;;;10542914;28;20047;-73
2022/09/26 00:38:24;;;;;;;4.85;2.28;;;;;;;;;;10554039;28;20144;-73
2022/09/26 00:43:33;;;;;;;5.05;2.70;;;;;;;;;;10537240;28;20119;-73
2022/09/26 00:48:37;;;;;;;6.40;3.58;;;;;;;;;;10567568;28;20036;-74
2022/09/26 00:53:45;;;;;;;3.78;1.85;;;;;;;;;;10566836;28;20404;-72
2022/09/26 00:58:54;;;;;;;2.90;1.40;;;;;;;;;;10548495;27;20038;-74
2022/09/26 01:04:07;;;;;;;6.85;3.10;;;;;;;;;;10543850;28;20044;-75
2022/09/26 01:09:21;;;;;;;6.45;3.50;;;;;;;;;;10528843;28;20507;-73
2022/09/26 01:14:32;;;;;;;4.25;2.30;;;;;;;;;;10551386;28;20035;-75
2022/09/26 01:19:39;;;;;;;7.25;3.03;;;;;;;;;;10567020;28;20123;-74
2022/09/26 01:24:51;;;;;;;5.20;2.92;;;;;;;;;;10561722;28;20055;-74
2022/09/26 01:30:10;;;;;;;6.60;2.92;;;;;;;;;;10564797;28;20408;-74
2022/09/26 01:35:18;;;;;;;5.70;3.15;;;;;;;;;;10548951;28;20043;-73
2022/09/26 01:40:25;;;;;;;7.13;2.67;;;;;;;;;;10569780;28;20044;-73
2022/09/26 01:45:36;;;;;;;4.05;1.90;;;;;;;;;;10565203;28;20047;-74
2022/09/26 01:50:45;;;;;;;6.15;3.03;;;;;;;;;;10566268;27;20104;-74
2022/09/26 01:55:53;;;;;;;6.07;2.33;;;;;;;;;;10567021;28;20054;-74
2022/09/26 02:01:09;;;;;;;9.05;3.35;;;;;;;;;;10552736;27;20039;-74
2022/09/26 02:06:17;;;;;;;3.33;1.90;;;;;;;;;;10552640;28;20046;-74
2022/09/26 02:11:24;;;;;;;8.48;4.28;;;;;;;;;;10569455;28;20381;-73
2022/09/26 02:16:32;;;;;;;2.78;1.65;;;;;;;;;;10566957;28;20036;-74
2022/09/26 02:21:39;;;;;;;7.93;3.88;;;;;;;;;;10545538;28;20134;-74
2022/09/26 02:26:44;;;;;;;7.00;3.03;;;;;;;;;;10550553;28;20067;-74
2022/09/26 02:31:51;;;;;;;7.70;4.15;;;;;;;;;;10564825;28;20027;-74
2022/09/26 02:36:59;;;;;;;7.28;3.47;;;;;;;;;;10557102;28;20484;-74
2022/09/26 02:42:09;;;;;;;8.10;3.60;;;;;;;;;;10559861;28;20048;-74
2022/09/26 02:47:32;;;;;;;3.63;1.98;;;;;;;;;;10560541;27;20093;-74
2022/09/26 02:52:44;;;;;;;7.28;3.85;;;;;;;;;;10530324;28;20086;-75
2022/09/26 02:57:52;;;;;;;6.50;3.22;;;;;;;;;;10544377;28;20036;-74
2022/09/26 03:03:03;;;;;;;4.95;2.55;;;;;;;;;;10573275;28;20116;-74
2022/09/26 03:08:10;;;;;;;9.48;4.32;;;;;;;;;;10552770;28;20484;-75
2022/09/26 03:13:15;;;;;;;6.97;3.00;;;;;;;;;;10534184;28;20047;-74
2022/09/26 03:18:23;;;;;;;9.60;4.47;;;;;;;;;;10573453;28;20561;-75
2022/09/26 03:23:29;;;;;;;10.23;3.92;;;;;;;;;;10562512;28;20036;-74
2022/09/26 03:28:33;;;;;;;7.35;3.03;;;;;;;;;;10569935;28;20079;-74
2022/09/26 03:33:47;;;;;;;10.65;4.50;;;;;;;;;;10553923;28;20143;-74
2022/09/26 03:38:57;;;;;;;11.20;4.57;;;;;;;;;;10536029;28;20036;-74
2022/09/26 03:44:03;;;;;;;10.00;4.70;;;;;;;;;;10547833;28;20142;-74
2022/09/26 03:49:06;;;;;;;9.75;5.35;;;;;;;;;;10554240;28;20166;-74
2022/09/26 03:54:13;;;;;;;12.32;5.60;;;;;;;;;;10567568;28;20046;-74
2022/09/26 03:59:18;;;;;;;4.57;2.38;;;;;;;;;;10535783;28;20040;-74
2022/09/26 04:04:21;;;;;;;10.88;4.57;;;;;;;;;;10570162;28;20480;-74
2022/09/26 04:09:27;;;;;;;12.95;5.68;;;;;;;;;;10549152;28;20212;-74
2022/09/26 04:14:32;;;;;;;15.23;6.18;;;;;;;;;;10557506;28;20048;-74
2022/09/26 04:19:35;;;;;;;10.60;4.57;;;;;;;;;;10549556;28;20036;-75
2022/09/26 04:24:43;;;;;;;13.00;5.53;;;;;;;;;;10549160;28;20081;-75
2022/09/26 04:29:47;;;;;;;14.38;6.30;;;;;;;;;;10571960;28;20035;-74
2022/09/26 04:34:53;;;;;;;12.38;5.68;;;;;;;;;;10548453;28;20105;-74
2022/09/26 04:39:59;;;;;;;14.20;6.65;;;;;;;;;;10572012;28;20039;-74
2022/09/26 04:45:05;;;;;;;14.05;6.18;;;;;;;;;;10542294;28;20496;-74
2022/09/26 04:50:08;;;;;;;11.93;5.53;;;;;;;;;;10570915;28;20086;-75
2022/09/26 04:55:13;;;;;;;14.32;7.13;;;;;;;;;;10546879;28;20129;-74
2022/09/26 05:00:23;;;;;;;15.15;6.22;;;;;;;;;;10571675;27;20044;-75
2022/09/26 05:05:27;;;;;;;8.48;4.20;;;;;;;;;;10571837;28;20048;-74
2022/09/26 05:10:31;;;;;;;;;;;;;;;;;;10545358;28;20044;-75
2022/09/26 05:15:40;;;;;;;10.70;5.03;;;;;;;;;;10543841;28;20376;-74
2022/09/26 05:20:47;;;;;;;9.45;4.63;;;;;;;;;;10533412;28;20118;-74
2022/09/26 05:31:13;;;;;;;8.77;4.00;;;;;;;;;;10566762;28;20407;-75
2022/09/26 05:36:18;;;;;;;7.38;4.60;;;;;;;;;;10564714;28;20059;-74
2022/09/26 05:41:23;;;;;;;11.07;4.82;;;;;;;;;;10562794;28;20047;-74
2022/09/26 05:46:30;;;;;;;6.97;3.40;;;;;;;;;;10554552;28;20146;-74
2022/09/26 05:51:40;;;;;;;12.63;5.28;;;;;;;;;;10567438;28;20032;-74
2022/09/26 05:56:44;;;;;;;12.30;6.10;;;;;;;;;;10548498;28;20043;-75
2022/09/26 06:01:47;;;;;;;;;;;;;;;;;;10577476;27;20480;-75
2022/09/26 06:06:56;;;;;;;13.90;6.32;;;;;;;;;;10575141;27;19931;-75
2022/09/26 06:12:07;;;;;;;13.52;5.70;;;;;;;;;;10567320;28;20042;-75
2022/09/26 06:17:10;;;;;;;13.10;5.80;;;;;;;;;;10534752;28;20044;-76
2022/09/26 06:22:19;;;;;;;14.20;6.70;;;;;;;;;;10544501;28;20054;-74
2022/09/26 06:27:24;;;;;;;15.40;6.60;;;;;;;;;;10537642;28;20043;-73
2022/09/26 06:32:28;;;;;;;14.32;6.05;;;;;;;;;;10542507;28;20040;-74
2022/09/26 06:37:37;;;;;;;14.85;7.10;;;;;;;;;;10556393;28;20048;-73
2022/09/26 06:42:42;;;;;;;14.05;6.55;;;;;;;;;;10556203;28;20285;-73
2022/09/26 06:47:47;;;;;;;12.35;5.75;;;;;;;;;;10533488;28;20032;-73
2022/09/26 06:53:02;;;;;;;16.23;7.13;;;;;;;;;;10558525;28;20044;-73
2022/09/26 06:58:08;;;;;;;15.02;6.65;;;;;;;;;;10530111;28;20040;-74
2022/09/26 07:03:14;;;;;;;13.10;6.00;;;;;;;;;;10536946;28;20039;-74
2022/09/26 07:08:36;;;;;;;13.85;6.78;;;;;;;;;;10559821;28;20151;-74
2022/09/26 07:14:00;;;;;;;13.13;5.88;;;;;;;;;;10535171;28;20384;-74
2022/09/26 07:19:05;;;;;;;14.00;6.75;;;;;;;;;;10554792;28;20060;-74
2022/09/26 07:24:12;;;;;;;13.65;5.43;;;;;;;;;;10535358;28;20047;-73
2022/09/26 07:29:17;;;;;;;12.77;4.97;;;;;;;;;;10523240;28;20130;-73
2022/09/26 07:34:24;;;;;;;13.25;5.97;;;;;;;;;;10556717;28;20401;-72
2022/09/26 07:39:30;;;;;;;11.38;5.55;;;;;;;;;;10556422;28;20051;-74
2022/09/26 07:44:42;;;;;;;13.10;6.40;;;;;;;;;;10555340;28;20086;-74
2022/09/26 07:50:13;;;;;;;6.65;2.85;;;;;;;;;;10541830;28;20056;-73
2022/09/26 07:55:21;;;;;;;12.40;6.00;;;;;;;;;;10550787;28;20043;-75
2022/09/26 08:00:30;;;;;;;14.00;5.80;;;;;;;;;;10554504;28;20058;-74
2022/09/26 08:05:36;;;;;;;9.45;3.10;;;;;;;;;;10553393;28;20047;-75
2022/09/26 08:10:43;;;;;;;8.93;4.47;;;;;;;;;;10534595;28;20040;-75
2022/09/26 08:15:49;;;;;;;7.63;4.75;;;;;;;;;;10562521;28;20126;-75
2022/09/26 08:20:53;;;;;;;7.43;3.50;;;;;;;;;;10559592;27;20056;-75
2022/09/26 08:26:12;;;;;;;7.25;3.67;;;;;;;;;;10529999;28;20043;-74
2022/09/26 08:31:16;;;;;;;7.90;3.92;;;;;;;;;;10574492;27;20450;-74
2022/09/26 08:36:21;;;;;;;6.82;3.60;;;;;;;;;;10547803;28;20055;-75
2022/09/26 08:41:39;;;;;;;6.30;3.05;;;;;;;;;;10562356;27;20040;-79
2022/09/26 08:46:55;;;;;;;5.60;3.33;;;;;;;;;;10548592;28;20051;-73
2022/09/26 08:52:00;;;;;;;7.60;3.83;;;;;;;;;;10541109;28;20081;-75
2022/09/26 08:57:20;;;;;;;4.97;2.70;;;;;;;;;;10564782;28;20126;-74
2022/09/26 09:02:29;;;;;;;5.57;3.17;;;;;;;;;;10560426;28;20039;-74
2022/09/26 09:07:36;;;;;;;6.15;3.50;;;;;;;;;;10564049;28;20101;-74
2022/09/26 09:12:50;;;;;;;7.25;3.28;;;;;;;;;;10544718;28;20233;-74
2022/09/26 09:17:59;;;;;;;4.95;3.10;;;;;;;;;;10556785;28;20333;-73
2022/09/26 09:23:14;;;;;;;5.13;3.72;;;;;;;;;;10538694;28;20406;-74
2022/09/26 09:28:29;;;;;;;4.13;3.10;;;;;;;;;;10559719;28;20043;-75
2022/09/26 09:33:35;;;;;;;4.45;2.67;;;;;;;;;;10563833;28;20062;-75
2022/09/26 09:38:46;;;;;;;3.33;2.80;;;;;;;;;;10548690;28;20132;-75
2022/09/26 09:43:55;;;;;;;3.25;2.55;;;;;;;;;;10549745;28;20104;-74
2022/09/26 09:49:03;;;;;;;3.55;2.33;;;;;;;;;;10554892;28;20480;-75
2022/09/26 09:54:22;;;;;;;3.65;2.20;;;;;;;;;;10544155;28;20048;-74
2022/09/26 09:59:41;;;;;;;3.85;2.35;;;;;;;;;;10545264;28;20408;-76
2022/09/26 10:04:47;;;;;;;3.95;2.90;;;;;;;;;;10562337;28;20345;-75
2022/09/26 10:09:53;;;;;;;5.57;2.58;;;;;;;;;;10565784;27;20024;-75
2022/09/26 10:15:05;;;;;;;3.08;2.72;;;;;;;;;;10564612;28;20484;-75
2022/09/26 10:20:34;;;;;;;2.95;2.65;;;;;;;;;;10541806;28;20039;-75
2022/09/26 10:25:46;;;;;;;2.50;1.67;;;;;;;;;;10559878;28;20217;-75
2022/09/26 10:31:03;;;;;;;2.30;1.80;;;;;;;;;;10546569;28;20054;-74
2022/09/26 10:36:12;;;;;;;2.53;2.15;;;;;;;;;;10559738;28;20051;-75
2022/09/26 10:41:22;;;;;;;3.90;2.10;;;;;;;;;;10581106;27;20047;-74
2022/09/26 10:46:28;;;;;;;4.88;2.60;;;;;;;;;;10538626;28;20088;-74
2022/09/26 10:51:38;;;;;;;2.92;2.00;;;;;;;;;;10541666;28;20047;-73
2022/09/26 10:56:46;;;;;;;3.03;2.00;;;;;;;;;;10560119;28;20696;-76
2022/09/26 11:01:55;;;;;;;6.22;3.17;;;;;;;;;;10539656;28;20485;-74
2022/09/26 11:07:04;;;;;;;4.22;2.40;;;;;;;;;;10538819;28;20070;-74
2022/09/26 11:12:24;;;;;;;4.25;2.72;;;;;;;;;;10562596;28;20368;-75
2022/09/26 11:17:49;;;;;;;4.55;2.70;;;;;;;;;;10565004;28;20062;-75
2022/09/26 11:23:01;;;;;;;4.50;2.42;;;;;;;;;;10556937;28;20048;-75
2022/09/26 11:28:15;;;;;;;3.80;2.70;;;;;;;;;;10562705;28;20120;-75
2022/09/26 11:33:19;;;;;;;3.67;2.20;;;;;;;;;;10563114;28;20047;-75
2022/09/26 11:38:37;;;;;;;4.43;2.20;;;;;;;;;;10551312;28;20070;-75
2022/09/26 11:43:50;;;;;;;4.60;2.30;;;;;;;;;;10543474;28;20051;-74
2022/09/26 11:49:21;;;;;;;4.18;2.00;;;;;;;;;;10569249;27;20039;-74
2022/09/26 11:54:34;;;;;;;2.25;1.70;;;;;;;;;;10544063;28;20051;-74
2022/09/26 11:59:58;;;;;;;2.53;1.75;;;;;;;;;;10566091;28;20040;-74
2022/09/26 12:05:12;;;;;;;2.58;1.73;;;;;;;;;;10560050;28;20047;-73
2022/09/26 12:10:38;;;;;;;2.42;1.95;;;;;;;;;;10580681;27;20126;-74
2022/09/26 12:15:52;;;;;;;3.80;1.90;;;;;;;;;;10543644;28;20358;-74
2022/09/26 12:21:05;;;;;;;3.53;2.00;;;;;;;;;;10558897;28;20574;-75
2022/09/26 12:26:15;;;;;;;2.77;1.77;;;;;;;;;;10545347;28;20040;-74
2022/09/26 12:31:26;;;;;;;3.35;1.90;;;;;;;;;;10567619;28;20039;-77
2022/09/26 12:36:46;;;;;;;3.97;1.92;;;;;;;;;;10561261;28;20052;-76
2022/09/26 12:42:00;;;;;;;2.95;1.98;;;;;;;;;;10546996;27;20043;-74
2022/09/26 12:47:13;;;;;;;2.88;1.90;;;;;;;;;;10560781;28;20039;-74
2022/09/26 12:52:26;;;;;;;5.97;1.90;;;;;;;;;;10564377;28;20535;-74
2022/09/26 12:57:41;;;;;;;3.80;2.00;;;;;;;;;;10515078;28;20348;-74
2022/09/26 13:03:04;;;;;;;2.95;2.03;;;;;;;;;;10559307;28;20047;-74
2022/09/26 13:08:14;;;;;;;2.67;2.22;;;;;;;;;;10545665;28;20048;-74
2022/09/26 13:13:39;;;;;;;2.60;2.00;;;;;;;;;;10544755;28;20473;-74
2022/09/26 13:18:58;;;;;;;2.25;1.88;;;;;;;;;;10544850;28;20075;-75
2022/09/26 13:24:19;;;;;;;3.00;2.15;;;;;;;;;;10556616;28;20078;-74
2022/09/26 13:29:27;;;;;;;3.35;3.00;;;;;;;;;;10546085;28;20082;-74
2022/09/26 13:34:42;;;;;;;4.10;2.20;;;;;;;;;;10551674;28;20488;-74
2022/09/26 13:39:50;;;;;;;2.40;1.60;;;;;;;;;;10527008;28;20527;-74
2022/09/26 13:45:01;;;;;;;2.20;1.42;;;;;;;;;;10555126;28;20047;-75
2022/09/26 13:50:14;;;;;;;2.25;1.77;;;;;;;;;;10548961;28;20540;-74
2022/09/26 13:55:20;;;;;;;2.03;1.65;;;;;;;;;;10561566;28;20039;-73
2022/09/26 14:00:56;;;;;;;2.17;1.60;;;;;;;;;;10543076;28;20097;-74
2022/09/26 14:06:15;;;;;;;2.42;1.63;;;;;;;;;;10560405;28;20249;-74
2022/09/26 14:11:29;;;;;;;3.55;1.95;;;;;;;;;;10551749;28;20050;-74
2022/09/26 14:16:34;;;;;;;2.97;1.70;;;;;;;;;;10539814;28;20104;-74
2022/09/26 14:21:41;;;;;;;1.60;1.00;;;;;;;;;;10558333;28;20120;-72
2022/09/26 14:26:57;;;;;;;1.50;1.00;;;;;;;;;;10549228;28;20039;-74
2022/09/26 14:32:04;;;;;;;3.10;1.50;;;;;;;;;;10561251;28;20096;-74
2022/09/26 14:37:23;;;;;;;2.78;1.70;;;;;;;;;;10524798;28;21333;-74
2022/09/26 14:42:30;;;;;;;1.17;0.95;;;;;;;;;;10558214;28;20045;-74
2022/09/26 14:47:41;;;;;;;2.22;1.55;;;;;;;;;;10524377;28;20055;-74
2022/09/26 14:52:51;;;;;;;3.10;1.67;;;;;;;;;;10536412;28;20031;-74
2022/09/26 14:58:11;;;;;;;3.20;1.48;;;;;;;;;;10557801;28;20050;-75
2022/09/26 15:03:22;;;;;;;2.30;1.25;;;;;;;;;;10551300;28;20051;-74
2022/09/26 15:08:26;;;;;;;2.30;1.60;;;;;;;;;;10534073;28;20044;-74
2022/09/26 15:13:37;;;;;;;2.67;1.40;;;;;;;;;;10554021;28;20484;-74
2022/09/26 15:18:49;;;;;;;2.78;1.02;;;;;;;;;;10523978;28;20039;-73
2022/09/26 15:23:54;;;;;;;3.90;1.20;;;;;;;;;;10561679;27;20035;-73
2022/09/26 15:29:05;;;;;;;1.80;1.27;;;;;;;;;;10566577;27;20552;-73
2022/09/26 15:34:16;;;;;;;1.73;1.02;;;;;;;;;;10574865;27;20097;-74
2022/09/26 15:39:45;;;;;;;3.22;0.93;;;;;;;;;;10563053;27;20047;-74
2022/09/26 15:45:07;;;;;;;1.70;1.10;;;;;;;;;;10561737;28;20044;-76
2022/09/26 15:50:42;;;;;;;1.85;1.20;;;;;;;;;;10563504;27;20054;-74
2022/09/26 15:55:55;;;;;;;1.83;1.10;;;;;;;;;;10575941;27;20040;-74
2022/09/26 16:00:59;;;;;;;1.20;1.00;;;;;;;;;;10578657;27;20116;-73
2022/09/26 16:06:30;;;;;;;2.38;1.10;;;;;;;;;;10559678;28;20120;-74
2022/09/26 16:11:46;;;;;;;4.15;1.00;;;;;;;;;;10559979;28;20039;-74
2022/09/26 16:16:52;;;;;;;4.97;1.42;;;;;;;;;;10578211;27;20040;-74
2022/09/26 16:22:25;;;;;;;2.35;1.45;;;;;;;;;;10580523;27;20042;-75
2022/09/26 16:27:34;;;;;;;2.42;1.30;;;;;;;;;;10554506;28;20730;-74
2022/09/26 16:32:39;;;;;;;4.82;2.15;;;;;;;;;;10579023;27;20048;-73
2022/09/26 16:37:42;;;;;;;1.45;1.10;;;;;;;;;;10572844;28;20048;-74
2022/09/26 16:42:52;;;;;;;2.55;1.55;;;;;;;;;;10544596;28;20048;-74
2022/09/26 16:47:56;;;;;;;6.22;3.45;;;;;;;;;;10560675;28;20056;-75
2022/09/26 16:53:01;;;;;;;5.22;2.47;;;;;;;;;;10554172;28;20040;-74
2022/09/26 16:58:13;;;;;;;4.93;2.30;;;;;;;;;;10552937;28;20132;-73
2022/09/26 17:03:23;;;;;;;3.67;1.75;;;;;;;;;;10555461;28;20084;-74
2022/09/26 17:08:27;;;;;;;7.60;3.72;;;;;;;;;;10552651;28;20047;-76
2022/09/26 17:13:39;;;;;;;4.70;2.03;;;;;;;;;;10569675;28;20038;-77
2022/09/26 17:18:44;;;;;;;4.70;2.15;;;;;;;;;;10549761;28;20047;-74
2022/09/26 17:24:00;;;;;;;6.15;2.00;;;;;;;;;;10556704;28;20674;-74
2022/09/26 17:29:17;;;;;;;6.65;2.80;;;;;;;;;;10568753;28;20043;-74
2022/09/26 17:34:25;;;;;;;5.30;2.40;;;;;;;;;;10561953;28;20713;-74
2022/09/26 17:39:30;;;;;;;4.97;1.80;;;;;;;;;;10593296;27;20062;-74
2022/09/26 17:44:33;;;;;;;;;;;;;;;;;;10577286;28;20040;-73
2022/09/26 17:49:58;;;;;;;3.45;1.70;;;;;;;;;;10577267;28;19984;-73
2022/09/26 17:55:25;;;;;;;2.65;1.35;;;;;;;;;;10574795;28;20072;-73
2022/09/26 18:00:31;;;;;;;2.60;1.30;;;;;;;;;;10562318;28;20043;-72
2022/09/26 18:05:37;;;;;;;4.53;2.03;;;;;;;;;;10577135;27;20085;-73
2022/09/26 18:10:46;;;;;;;3.00;1.38;;;;;;;;;;10577573;28;20040;-74
2022/09/26 18:15:56;;;;;;;3.45;2.00;;;;;;;;;;10576885;28;20045;-73
2022/09/26 18:21:04;;;;;;;4.18;1.70;;;;;;;;;;10544947;28;20041;-74
2022/09/26 18:26:13;;;;;;;3.17;1.55;;;;;;;;;;10574552;27;20053;-73
2022/09/26 18:31:26;;;;;;;2.90;1.25;;;;;;;;;;10573830;28;20047;-74
2022/09/26 18:36:36;;;;;;;2.72;1.58;;;;;;;;;;10557684;28;20074;-73
2022/09/26 18:41:48;;;;;;;4.57;1.90;;;;;;;;;;10573241;28;20039;-74
2022/09/26 18:46:53;;;;;;;3.22;2.20;;;;;;;;;;10574082;28;20050;-76
2022/09/26 18:52:21;;;;;;;4.00;2.30;;;;;;;;;;10570851;28;20076;-75
2022/09/26 19:03:05;;;;;;;2.08;1.58;;;;;;;;;;10575096;28;20047;-75
2022/09/26 19:08:24;;;;;;;5.07;1.80;;;;;;;;;;10573011;28;20039;-77
2022/09/26 19:13:36;;;;;;;5.50;1.75;;;;;;;;;;10561418;28;20055;-76
2022/09/26 19:18:47;;;;;;;3.67;1.95;;;;;;;;;;10574793;28;20330;-75
2022/09/26 19:23:59;;;;;;;2.55;1.65;;;;;;;;;;10555242;28;20035;-74
2022/09/26 19:29:13;;;;;;;1.90;1.20;;;;;;;;;;10554987;28;20078;-74
2022/09/26 19:34:19;;;;;;;1.58;1.02;;;;;;;;;;10551601;28;20453;-74
2022/09/26 19:39:38;;;;;;;4.00;2.38;;;;;;;;;;10564983;28;20047;-74
2022/09/26 19:44:49;;;;;;;3.75;1.63;;;;;;;;;;10566739;28;20048;-74
2022/09/26 19:49:54;;;;;;;2.95;1.25;;;;;;;;;;10567453;28;20093;-74
2022/09/26 19:55:00;;;;;;;5.78;2.10;;;;;;;;;;10566638;28;20036;-74
2022/09/26 20:00:18;;;;;;;4.75;1.10;;;;;;;;;;10565755;28;20062;-74
2022/09/26 20:05:31;;;;;;;7.85;4.13;;;;;;;;;;10568188;28;20476;-76
2022/09/26 20:10:36;;;;;;;5.10;2.10;;;;;;;;;;10569913;28;20044;-75
2022/09/26 20:15:48;;;;;;;4.80;2.28;;;;;;;;;;10587318;27;20040;-74
2022/09/26 20:20:54;;;;;;;3.38;1.70;;;;;;;;;;10573117;28;20047;-76
2022/09/26 20:25:58;;;;;;;2.80;1.80;;;;;;;;;;10555292;28;20120;-75
2022/09/26 20:31:09;;;;;;;;;;;;;;;;;;10573224;28;20075;-75
2022/09/26 20:36:24;;;;;;;3.87;2.00;;;;;;;;;;10553963;28;20014;-75
2022/09/26 20:41:31;;;;;;;2.80;1.42;;;;;;;;;;10538816;28;20410;-76
2022/09/26 20:46:40;;;;;;;3.67;1.92;;;;;;;;;;10568236;28;20032;-77
2022/09/26 20:51:47;;;;;;;3.67;1.42;;;;;;;;;;10575022;28;20519;-75
2022/09/26 20:56:53;;;;;;;2.92;1.67;;;;;;;;;;10570742;28;20110;-75
2022/09/26 21:02:01;;;;;;;4.35;1.95;;;;;;;;;;10554910;28;20043;-75
2022/09/26 21:07:11;;;;;;;4.53;1.95;;;;;;;;;;10571469;27;20047;-76
2022/09/26 21:12:24;;;;;;;4.82;1.40;;;;;;;;;;10565528;28;21145;-76
2022/09/26 21:17:28;;;;;;;2.08;1.05;;;;;;;;;;10554757;28;20085;-75
2022/09/26 21:22:35;;;;;;;5.28;1.33;;;;;;;;;;10534215;28;20043;-77
2022/09/26 21:27:39;;;;;;;2.97;1.50;;;;;;;;;;10556913;28;20130;-77
2022/09/26 21:32:45;;;;;;;2.63;1.38;;;;;;;;;;10571744;28;20039;-76
2022/09/26 21:37:55;;;;;;;3.60;1.55;;;;;;;;;;10567517;28;20051;-78
2022/09/26 21:43:01;;;;;;;3.65;1.40;;;;;;;;;;10555119;28;20048;-77
2022/09/26 21:48:14;;;;;;;2.67;1.75;;;;;;;;;;10571003;28;20114;-77
2022/09/26 21:53:35;;;;;;;2.63;1.20;;;;;;;;;;10567329;28;20134;-76
2022/09/26 21:58:42;;;;;;;4.00;1.80;;;;;;;;;;10570455;28;20043;-76
2022/09/26 22:03:57;;;;;;;4.13;1.48;;;;;;;;;;10554847;28;20035;-76
2022/09/26 22:09:12;;;;;;;1.95;1.15;;;;;;;;;;10561105;28;20047;-77
2022/09/26 22:14:19;;;;;;;2.00;1.13;;;;;;;;;;10559098;28;20039;-76
2022/09/26 22:19:34;;;;;;;4.40;1.83;;;;;;;;;;10546267;28;20074;-77
2022/09/26 22:24:43;;;;;;;1.10;0.70;;;;;;;;;;10563589;28;20127;-76
2022/09/26 22:29:53;;;;;;;3.38;1.27;;;;;;;;;;10563782;28;20105;-76
2022/09/26 22:35:06;;;;;;;3.17;1.45;;;;;;;;;;10540508;28;20035;-76
2022/09/26 22:40:22;;;;;;;1.10;0.73;;;;;;;;;;10550166;28;20484;-75
2022/09/26 22:45:28;;;;;;;2.03;0.90;;;;;;;;;;10567884;28;20039;-75
2022/09/26 22:50:33;;;;;;;1.92;0.85;;;;;;;;;;10570019;28;20397;-74
2022/09/26 22:55:51;;;;;;;2.22;1.10;;;;;;;;;;10564324;28;20968;-75
2022/09/26 23:00:56;;;;;;;1.38;1.13;;;;;;;;;;10566770;28;20035;-75
2022/09/26 23:06:11;;;;;;;2.20;1.20;;;;;;;;;;10548073;28;20039;-74
2022/09/26 23:11:18;;;;;;;2.20;1.10;;;;;;;;;;10569227;28;20059;-75
2022/09/26 23:16:22;;;;;;;1.38;1.00;;;;;;;;;;10549257;28;20048;-75
2022/09/26 23:21:33;;;;;;;2.75;1.30;;;;;;;;;;10567276;28;20458;-75
2022/09/26 23:26:41;;;;;;;1.85;1.20;;;;;;;;;;10542227;28;20062;-75
2022/09/26 23:31:46;;;;;;;2.05;1.13;;;;;;;;;;10567356;28;20085;-75
2022/09/26 23:36:50;;;;;;;0.95;0.80;;;;;;;;;;10547830;28;20093;-74
2022/09/26 23:42:02;;;;;;;2.15;1.20;;;;;;;;;;10560558;28;20055;-74
2022/09/26 23:47:05;;;;;;;1.60;0.55;;;;;;;;;;10556107;27;20539;-74
2022/09/26 23:52:11;;;;;;;3.58;1.10;;;;;;;;;;10555497;28;20059;-74
2022/09/26 23:57:24;;;;;;;1.95;1.10;;;;;;;;;;10537006;28;20101;-75
